RYR4622 ESSA-EETN
Flight info
| Callsign | RYR4622 |
|---|---|
| Flight time | 0h 38m |
| Altitude | 31000 |
| Route | TOVRI N851 RIKUM DCT DOBAN |
| Aircraft | B738/M-SDE2E3FGHIRWXY/LB1 |
Departure
| Time | 2026-05-07 17:17 |
|---|---|
| Airport | Stockholm-Arlanda Airport (ESSA) |
Arrival
| Time | 2026-05-07 17:55 |
|---|---|
| Airport | Lennart Meri Tallinn Airport (EETN) |
| Time | Latitude | Longitude | Altitude | Speed | Heading |
|---|---|---|---|---|---|
| 2026-05-07 16:46 | 59.65316 | 17.93567 | 146 ft | 0 kts | 75° |
| 2026-05-07 16:47 | 59.65397 | 17.93531 | 146 ft | 0 kts | 75° |
| 2026-05-07 17:06 | 59.65395 | 17.93514 | 146 ft | 2 kts | 75° |
| 2026-05-07 17:06 | 59.65391 | 17.93485 | 146 ft | 2 kts | 75° |
| 2026-05-07 17:06 | 59.65387 | 17.93456 | 146 ft | 2 kts | 75° |
| 2026-05-07 17:07 | 59.65385 | 17.93437 | 146 ft | 1 kts | 76° |
| 2026-05-07 17:07 | 59.65379 | 17.93410 | 146 ft | 2 kts | 44° |
| 2026-05-07 17:07 | 59.65366 | 17.93394 | 146 ft | 2 kts | 15° |
| 2026-05-07 17:07 | 59.65352 | 17.93391 | 146 ft | 0 kts | 350° |
| 2026-05-07 17:08 | 59.65346 | 17.93395 | 146 ft | 1 kts | 346° |
| 2026-05-07 17:08 | 59.65345 | 17.93395 | 146 ft | 0 kts | 346° |
| 2026-05-07 17:10 | 59.65353 | 17.93391 | 146 ft | 6 kts | 347° |
| 2026-05-07 17:10 | 59.65444 | 17.93350 | 146 ft | 16 kts | 351° |
| 2026-05-07 17:10 | 59.65541 | 17.93324 | 146 ft | 13 kts | 344° |
| 2026-05-07 17:11 | 59.65619 | 17.93361 | 146 ft | 11 kts | 62° |
| 2026-05-07 17:11 | 59.65648 | 17.93558 | 146 ft | 17 kts | 75° |
| 2026-05-07 17:11 | 59.65665 | 17.93775 | 146 ft | 14 kts | 108° |
| 2026-05-07 17:11 | 59.65641 | 17.93820 | 146 ft | 0 kts | 162° |
| 2026-05-07 17:12 | 59.65617 | 17.93827 | 146 ft | 10 kts | 182° |
| 2026-05-07 17:12 | 59.65577 | 17.93656 | 146 ft | 15 kts | 258° |
| 2026-05-07 17:12 | 59.65548 | 17.93430 | 146 ft | 18 kts | 256° |
| 2026-05-07 17:13 | 59.65513 | 17.93153 | 146 ft | 21 kts | 256° |
| 2026-05-07 17:13 | 59.65469 | 17.92876 | 146 ft | 20 kts | 248° |
| 2026-05-07 17:13 | 59.65439 | 17.92634 | 146 ft | 17 kts | 298° |
| 2026-05-07 17:13 | 59.65536 | 17.92522 | 146 ft | 15 kts | 343° |
| 2026-05-07 17:14 | 59.65633 | 17.92473 | 146 ft | 14 kts | 345° |
| 2026-05-07 17:14 | 59.65749 | 17.92421 | 146 ft | 19 kts | 1° |
| 2026-05-07 17:14 | 59.65886 | 17.92465 | 146 ft | 21 kts | 10° |
| 2026-05-07 17:14 | 59.66050 | 17.92524 | 146 ft | 25 kts | 10° |
| 2026-05-07 17:15 | 59.66233 | 17.92590 | 146 ft | 27 kts | 10° |
| 2026-05-07 17:15 | 59.66420 | 17.92649 | 146 ft | 24 kts | 1° |
| 2026-05-07 17:15 | 59.66557 | 17.92583 | 146 ft | 17 kts | 341° |
| 2026-05-07 17:15 | 59.66610 | 17.92423 | 146 ft | 13 kts | 251° |
| 2026-05-07 17:16 | 59.66538 | 17.92334 | 146 ft | 15 kts | 191° |
| 2026-05-07 17:16 | 59.66394 | 17.92284 | 146 ft | 26 kts | 190° |
| 2026-05-07 17:16 | 59.66014 | 17.92154 | 146 ft | 96 kts | 192° |
| 2026-05-07 17:16 | 59.65073 | 17.91795 | 166 ft | 172 kts | 188° |
| 2026-05-07 17:17 | 59.63828 | 17.91232 | 916 ft | 185 kts | 189° |
| 2026-05-07 17:17 | 59.62585 | 17.90746 | 1984 ft | 187 kts | 186° |
| 2026-05-07 17:17 | 59.61298 | 17.90400 | 2628 ft | 191 kts | 181° |
| 2026-05-07 17:17 | 59.59947 | 17.90325 | 3269 ft | 194 kts | 176° |
| 2026-05-07 17:18 | 59.58598 | 17.90347 | 3874 ft | 201 kts | 179° |
| 2026-05-07 17:18 | 59.57180 | 17.90291 | 4458 ft | 207 kts | 170° |
| 2026-05-07 17:18 | 59.55896 | 17.91539 | 4996 ft | 212 kts | 135° |
| 2026-05-07 17:18 | 59.54932 | 17.93856 | 5101 ft | 224 kts | 131° |
| 2026-05-07 17:19 | 59.53952 | 17.96205 | 5917 ft | 223 kts | 123° |
| 2026-05-07 17:19 | 59.53587 | 17.99151 | 6715 ft | 230 kts | 87° |
| 2026-05-07 17:19 | 59.54256 | 18.02159 | 7168 ft | 256 kts | 51° |
| 2026-05-07 17:19 | 59.55759 | 18.04401 | 7539 ft | 280 kts | 35° |
| 2026-05-07 17:20 | 59.57254 | 18.06903 | 8106 ft | 287 kts | 57° |
| 2026-05-07 17:20 | 59.58033 | 18.10537 | 8836 ft | 287 kts | 79° |
| 2026-05-07 17:20 | 59.58631 | 18.14325 | 9567 ft | 296 kts | 69° |
| 2026-05-07 17:20 | 59.59607 | 18.17945 | 10325 ft | 304 kts | 62° |
| 2026-05-07 17:21 | 59.60723 | 18.21666 | 10796 ft | 323 kts | 61° |
| 2026-05-07 17:21 | 59.61928 | 18.25647 | 11142 ft | 345 kts | 60° |
| 2026-05-07 17:21 | 59.63196 | 18.29757 | 11839 ft | 355 kts | 60° |
| 2026-05-07 17:21 | 59.64512 | 18.33998 | 12651 ft | 361 kts | 59° |
| 2026-05-07 17:22 | 59.65846 | 18.38294 | 13495 ft | 367 kts | 59° |
| 2026-05-07 17:22 | 59.67203 | 18.42664 | 14347 ft | 372 kts | 59° |
| 2026-05-07 17:22 | 59.68572 | 18.47077 | 15188 ft | 377 kts | 59° |
| 2026-05-07 17:22 | 59.69951 | 18.51530 | 16012 ft | 382 kts | 59° |
| 2026-05-07 17:23 | 59.71371 | 18.56120 | 16825 ft | 387 kts | 59° |
| 2026-05-07 17:23 | 59.72780 | 18.60682 | 17600 ft | 392 kts | 59° |
| 2026-05-07 17:23 | 59.74228 | 18.65380 | 18366 ft | 397 kts | 60° |
| 2026-05-07 17:23 | 59.75674 | 18.70083 | 19100 ft | 402 kts | 59° |
| 2026-05-07 17:24 | 59.77140 | 18.74858 | 19817 ft | 406 kts | 59° |
| 2026-05-07 17:24 | 59.78637 | 18.79742 | 20525 ft | 411 kts | 59° |
| 2026-05-07 17:24 | 59.80122 | 18.84598 | 21201 ft | 415 kts | 59° |
| 2026-05-07 17:24 | 59.81630 | 18.89542 | 21862 ft | 420 kts | 59° |
| 2026-05-07 17:25 | 59.83154 | 18.94548 | 22504 ft | 424 kts | 59° |
| 2026-05-07 17:25 | 59.84710 | 18.99670 | 23135 ft | 428 kts | 59° |
| 2026-05-07 17:25 | 59.86249 | 19.04746 | 23738 ft | 432 kts | 59° |
| 2026-05-07 17:25 | 59.87815 | 19.09925 | 24333 ft | 436 kts | 59° |
| 2026-05-07 17:26 | 59.89383 | 19.15122 | 24910 ft | 440 kts | 58° |
| 2026-05-07 17:26 | 59.90974 | 19.20403 | 25456 ft | 444 kts | 58° |
| 2026-05-07 17:26 | 59.92582 | 19.25757 | 26025 ft | 447 kts | 58° |
| 2026-05-07 17:26 | 59.94172 | 19.31063 | 26705 ft | 446 kts | 58° |
| 2026-05-07 17:27 | 59.95601 | 19.36506 | 27437 ft | 443 kts | 66° |
| 2026-05-07 17:27 | 59.96571 | 19.42409 | 28072 ft | 442 kts | 78° |
| 2026-05-07 17:27 | 59.96917 | 19.48474 | 28661 ft | 439 kts | 90° |
| 2026-05-07 17:27 | 59.96794 | 19.54576 | 29231 ft | 438 kts | 94° |
| 2026-05-07 17:28 | 59.96476 | 19.60659 | 29765 ft | 437 kts | 101° |
| 2026-05-07 17:28 | 59.95874 | 19.66624 | 30315 ft | 435 kts | 105° |
| 2026-05-07 17:28 | 59.95243 | 19.72515 | 30817 ft | 435 kts | 104° |
| 2026-05-07 17:28 | 59.94656 | 19.78468 | 31160 ft | 437 kts | 103° |
| 2026-05-07 17:29 | 59.93523 | 19.90309 | 31156 ft | 436 kts | 103° |
| 2026-05-07 17:29 | 59.92372 | 20.02249 | 31155 ft | 433 kts | 103° |
| 2026-05-07 17:30 | 59.91221 | 20.14173 | 31155 ft | 434 kts | 103° |
| 2026-05-07 17:30 | 59.90116 | 20.26081 | 31155 ft | 435 kts | 101° |
| 2026-05-07 17:31 | 59.89202 | 20.38061 | 31155 ft | 435 kts | 100° |
| 2026-05-07 17:31 | 59.88239 | 20.50014 | 31155 ft | 435 kts | 101° |
| 2026-05-07 17:32 | 59.87266 | 20.61906 | 31155 ft | 435 kts | 101° |
| 2026-05-07 17:32 | 59.86438 | 20.71902 | 31155 ft | 434 kts | 101° |
| 2026-05-07 17:33 | 59.85275 | 20.85734 | 31155 ft | 434 kts | 102° |
| 2026-05-07 17:33 | 59.84071 | 20.97493 | 31155 ft | 433 kts | 104° |
| 2026-05-07 17:34 | 59.82774 | 21.09295 | 31146 ft | 432 kts | 103° |
| 2026-05-07 17:34 | 59.81510 | 21.20987 | 31138 ft | 434 kts | 103° |
| 2026-05-07 17:35 | 59.80231 | 21.32719 | 31112 ft | 434 kts | 103° |
| 2026-05-07 17:35 | 59.79592 | 21.38548 | 30950 ft | 432 kts | 103° |
| 2026-05-07 17:35 | 59.78957 | 21.44335 | 30693 ft | 424 kts | 103° |
| 2026-05-07 17:36 | 59.78337 | 21.49966 | 30443 ft | 416 kts | 103° |
| 2026-05-07 17:36 | 59.77710 | 21.55629 | 30189 ft | 411 kts | 103° |
| 2026-05-07 17:36 | 59.77091 | 21.61193 | 29874 ft | 413 kts | 103° |
| 2026-05-07 17:36 | 59.76466 | 21.66793 | 29418 ft | 410 kts | 104° |
| 2026-05-07 17:37 | 59.75848 | 21.72307 | 28920 ft | 409 kts | 104° |
| 2026-05-07 17:37 | 59.75223 | 21.77866 | 28405 ft | 408 kts | 104° |
| 2026-05-07 17:37 | 59.74601 | 21.83372 | 27892 ft | 407 kts | 104° |
| 2026-05-07 17:37 | 59.73975 | 21.88890 | 27376 ft | 405 kts | 104° |
| 2026-05-07 17:38 | 59.73347 | 21.94412 | 26859 ft | 404 kts | 104° |
| 2026-05-07 17:38 | 59.72726 | 21.99845 | 26349 ft | 403 kts | 104° |
| 2026-05-07 17:38 | 59.72105 | 22.05249 | 25842 ft | 402 kts | 104° |
| 2026-05-07 17:38 | 59.71479 | 22.10689 | 25331 ft | 401 kts | 104° |
| 2026-05-07 17:39 | 59.70852 | 22.16106 | 24821 ft | 399 kts | 104° |
| 2026-05-07 17:39 | 59.70228 | 22.21482 | 24314 ft | 398 kts | 104° |
| 2026-05-07 17:39 | 59.69601 | 22.26856 | 23805 ft | 397 kts | 104° |
| 2026-05-07 17:39 | 59.68976 | 22.32198 | 23300 ft | 395 kts | 104° |
| 2026-05-07 17:40 | 59.68348 | 22.37544 | 22795 ft | 394 kts | 105° |
| 2026-05-07 17:40 | 59.67715 | 22.42914 | 22286 ft | 392 kts | 105° |
| 2026-05-07 17:40 | 59.67093 | 22.48169 | 21787 ft | 391 kts | 105° |
| 2026-05-07 17:40 | 59.66467 | 22.53438 | 21287 ft | 389 kts | 105° |
| 2026-05-07 17:41 | 59.65843 | 22.58673 | 20789 ft | 387 kts | 105° |
| 2026-05-07 17:41 | 59.65213 | 22.63935 | 20288 ft | 385 kts | 105° |
| 2026-05-07 17:41 | 59.64599 | 22.69048 | 19800 ft | 383 kts | 106° |
| 2026-05-07 17:41 | 59.63973 | 22.74234 | 19304 ft | 381 kts | 106° |
| 2026-05-07 17:42 | 59.63348 | 22.79401 | 18810 ft | 379 kts | 106° |
| 2026-05-07 17:42 | 59.62733 | 22.84464 | 18325 ft | 377 kts | 105° |
| 2026-05-07 17:42 | 59.62112 | 22.89552 | 17838 ft | 375 kts | 105° |
| 2026-05-07 17:42 | 59.61499 | 22.94568 | 17357 ft | 373 kts | 105° |
| 2026-05-07 17:43 | 59.60880 | 22.99606 | 16874 ft | 370 kts | 105° |
| 2026-05-07 17:43 | 59.60269 | 23.04565 | 16396 ft | 368 kts | 105° |
| 2026-05-07 17:43 | 59.59660 | 23.09495 | 15922 ft | 366 kts | 105° |
| 2026-05-07 17:43 | 59.59048 | 23.14431 | 15447 ft | 364 kts | 105° |
| 2026-05-07 17:44 | 59.58435 | 23.19352 | 14972 ft | 361 kts | 105° |
| 2026-05-07 17:44 | 59.57836 | 23.24154 | 14545 ft | 358 kts | 105° |
| 2026-05-07 17:44 | 59.57239 | 23.28927 | 14427 ft | 344 kts | 105° |
| 2026-05-07 17:44 | 59.56668 | 23.33475 | 14295 ft | 332 kts | 105° |
| 2026-05-07 17:45 | 59.56120 | 23.37823 | 14167 ft | 321 kts | 105° |
| 2026-05-07 17:45 | 59.55584 | 23.42067 | 14040 ft | 310 kts | 105° |
| 2026-05-07 17:45 | 59.55059 | 23.46197 | 13915 ft | 306 kts | 105° |
| 2026-05-07 17:45 | 59.54529 | 23.50356 | 13762 ft | 309 kts | 105° |
| 2026-05-07 17:46 | 59.53995 | 23.54536 | 13153 ft | 316 kts | 105° |
| 2026-05-07 17:46 | 59.53462 | 23.58711 | 12890 ft | 310 kts | 105° |
| 2026-05-07 17:46 | 59.52937 | 23.62814 | 12613 ft | 305 kts | 105° |
| 2026-05-07 17:46 | 59.52412 | 23.66897 | 12281 ft | 302 kts | 107° |
| 2026-05-07 17:47 | 59.51894 | 23.70916 | 11919 ft | 300 kts | 107° |
| 2026-05-07 17:47 | 59.51383 | 23.74866 | 11636 ft | 295 kts | 107° |
| 2026-05-07 17:47 | 59.50873 | 23.78806 | 11329 ft | 292 kts | 106° |
| 2026-05-07 17:47 | 59.50364 | 23.82717 | 10984 ft | 290 kts | 106° |
| 2026-05-07 17:48 | 59.49863 | 23.86564 | 10634 ft | 289 kts | 106° |
| 2026-05-07 17:48 | 59.49364 | 23.90388 | 10285 ft | 287 kts | 106° |
| 2026-05-07 17:48 | 59.48859 | 23.94240 | 9935 ft | 286 kts | 106° |
| 2026-05-07 17:48 | 59.48355 | 23.98080 | 9584 ft | 285 kts | 105° |
| 2026-05-07 17:49 | 59.47855 | 24.01879 | 9239 ft | 284 kts | 105° |
| 2026-05-07 17:49 | 59.47356 | 24.05666 | 8895 ft | 282 kts | 105° |
| 2026-05-07 17:49 | 59.46857 | 24.09437 | 8555 ft | 281 kts | 105° |
| 2026-05-07 17:49 | 59.46363 | 24.13161 | 8220 ft | 280 kts | 105° |
| 2026-05-07 17:50 | 59.45862 | 24.16933 | 7881 ft | 278 kts | 105° |
| 2026-05-07 17:50 | 59.45365 | 24.20661 | 7546 ft | 277 kts | 105° |
| 2026-05-07 17:50 | 59.44874 | 24.24337 | 7218 ft | 275 kts | 104° |
| 2026-05-07 17:50 | 59.44381 | 24.28019 | 6890 ft | 274 kts | 104° |
| 2026-05-07 17:51 | 59.43892 | 24.31668 | 6429 ft | 279 kts | 104° |
| 2026-05-07 17:51 | 59.43381 | 24.35471 | 5934 ft | 294 kts | 104° |
| 2026-05-07 17:51 | 59.42856 | 24.39366 | 5414 ft | 290 kts | 104° |
| 2026-05-07 17:51 | 59.42341 | 24.43166 | 4896 ft | 282 kts | 104° |
| 2026-05-07 17:52 | 59.41833 | 24.46922 | 4327 ft | 275 kts | 103° |
| 2026-05-07 17:52 | 59.41489 | 24.50558 | 3743 ft | 269 kts | 94° |
| 2026-05-07 17:52 | 59.41398 | 24.54180 | 3185 ft | 257 kts | 90° |
| 2026-05-07 17:52 | 59.41365 | 24.57663 | 2639 ft | 246 kts | 88° |
| 2026-05-07 17:53 | 59.41364 | 24.60971 | 2220 ft | 232 kts | 88° |
| 2026-05-07 17:53 | 59.41361 | 24.64060 | 1870 ft | 218 kts | 88° |
| 2026-05-07 17:53 | 59.41357 | 24.66938 | 1579 ft | 198 kts | 88° |
| 2026-05-07 17:53 | 59.41353 | 24.69449 | 1340 ft | 167 kts | 88° |
| 2026-05-07 17:54 | 59.41350 | 24.71644 | 1107 ft | 147 kts | 88° |
| 2026-05-07 17:54 | 59.41347 | 24.73662 | 925 ft | 145 kts | 88° |
| 2026-05-07 17:54 | 59.41339 | 24.75666 | 735 ft | 147 kts | 87° |
| 2026-05-07 17:54 | 59.41337 | 24.77756 | 532 ft | 152 kts | 88° |
| 2026-05-07 17:55 | 59.41332 | 24.79840 | 305 ft | 150 kts | 88° |
| 2026-05-07 17:55 | 59.41328 | 24.81892 | 148 ft | 141 kts | 88° |
| 2026-05-07 17:55 | 59.41326 | 24.83454 | 151 ft | 75 kts | 89° |
| 2026-05-07 17:55 | 59.41324 | 24.84140 | 151 ft | 39 kts | 90° |
| 2026-05-07 17:56 | 59.41325 | 24.84643 | 150 ft | 36 kts | 92° |
| 2026-05-07 17:56 | 59.41371 | 24.85000 | 147 ft | 16 kts | 6° |
| 2026-05-07 17:56 | 59.41470 | 24.84978 | 147 ft | 13 kts | 324° |
| 2026-05-07 17:56 | 59.41494 | 24.84787 | 148 ft | 18 kts | 269° |
| 2026-05-07 17:57 | 59.41496 | 24.84504 | 150 ft | 22 kts | 270° |
| 2026-05-07 17:57 | 59.41498 | 24.84266 | 150 ft | 28 kts | 273° |
| 2026-05-07 17:57 | 59.41501 | 24.83740 | 147 ft | 26 kts | 267° |
| 2026-05-07 17:57 | 59.41500 | 24.83404 | 147 ft | 22 kts | 271° |
| 2026-05-07 17:58 | 59.41499 | 24.83094 | 147 ft | 22 kts | 270° |
| 2026-05-07 17:58 | 59.41501 | 24.82776 | 147 ft | 22 kts | 271° |
| 2026-05-07 17:58 | 59.41501 | 24.82461 | 147 ft | 23 kts | 270° |
| 2026-05-07 17:58 | 59.41502 | 24.82134 | 144 ft | 24 kts | 270° |
| 2026-05-07 17:59 | 59.41504 | 24.81798 | 144 ft | 23 kts | 270° |
| 2026-05-07 17:59 | 59.41504 | 24.81485 | 147 ft | 22 kts | 271° |
| 2026-05-07 17:59 | 59.41504 | 24.81206 | 150 ft | 18 kts | 271° |
| 2026-05-07 17:59 | 59.41507 | 24.80962 | 154 ft | 17 kts | 268° |
| 2026-05-07 18:00 | 59.41506 | 24.80730 | 154 ft | 17 kts | 271° |
| 2026-05-07 18:00 | 59.41531 | 24.80526 | 154 ft | 13 kts | 325° |
| 2026-05-07 18:00 | 59.41616 | 24.80512 | 156 ft | 13 kts | 360° |
| 2026-05-07 18:00 | 59.41709 | 24.80477 | 158 ft | 12 kts | 327° |
| 2026-05-07 18:01 | 59.41740 | 24.80348 | 159 ft | 9 kts | 282° |
| 2026-05-07 18:01 | 59.41747 | 24.80214 | 159 ft | 11 kts | 272° |
| 2026-05-07 18:01 | 59.41743 | 24.80074 | 157 ft | 7 kts | 232° |
| 2026-05-07 18:01 | 59.41697 | 24.80057 | 157 ft | 5 kts | 181° |
| 2026-05-07 18:02 | 59.41691 | 24.80056 | 157 ft | 0 kts | 181° |